Time;durP1;ratioP1;P1;durP2;ratioP2;P2;SDS_P1;SDS_P2;PMS_P1;PMS_P2;Temp;Humidity;BMP_temperature;BMP_pressure;BME280_temperature;BME280_humidity;BME280_pressure;Samples;Min_cycle;Max_cycle;Signal;HPM_P1;HPM_P2
2023/08/24 00:03:13;;;;;;;1.65;1.08;;;;;;;;;;20889913;28;20231;-68
2023/08/24 00:13:15;;;;;;;4.25;1.10;;;;;;;;;;20892970;28;20221;-68
2023/08/24 00:23:18;;;;;;;1.67;1.10;;;;;;;;;;20904931;28;20223;-68
2023/08/24 00:33:19;;;;;;;1.60;0.85;;;;;;;;;;20897434;28;20218;-68
2023/08/24 00:43:23;;;;;;;1.35;0.90;;;;;;;;;;20909558;28;21084;-68
2023/08/24 00:53:26;;;;;;;1.83;1.00;;;;;;;;;;20883893;28;20225;-68
2023/08/24 01:03:28;;;;;;;1.88;1.15;;;;;;;;;;20900089;28;20220;-68
2023/08/24 01:13:41;;;;;;;3.40;0.90;;;;;;;;;;20896863;28;20223;-68
2023/08/24 01:23:43;;;;;;;1.48;1.00;;;;;;;;;;20887159;28;20223;-68
2023/08/24 01:33:45;;;;;;;3.05;0.95;;;;;;;;;;20908978;28;20224;-68
2023/08/24 01:43:50;;;;;;;2.72;0.80;;;;;;;;;;20950692;28;20217;-68
2023/08/24 01:53:52;;;;;;;1.77;0.80;;;;;;;;;;20906481;28;20223;-68
2023/08/24 02:03:54;;;;;;;1.60;1.02;;;;;;;;;;20907682;28;20325;-68
2023/08/24 02:13:56;;;;;;;4.88;1.30;;;;;;;;;;20915510;28;20587;-68
2023/08/24 02:23:58;;;;;;;2.70;0.90;;;;;;;;;;20948479;28;20216;-68
2023/08/24 02:34:00;;;;;;;2.53;0.98;;;;;;;;;;20910613;28;20237;-68
2023/08/24 02:44:02;;;;;;;1.70;0.80;;;;;;;;;;20903166;28;20310;-67
2023/08/24 02:54:04;;;;;;;2.88;1.15;;;;;;;;;;20927783;22;20223;-70
2023/08/24 03:04:05;;;;;;;2.60;1.15;;;;;;;;;;21000057;28;20216;-71
2023/08/24 03:14:07;;;;;;;3.88;1.00;;;;;;;;;;20949978;28;20239;-71
2023/08/24 03:24:09;;;;;;;1.92;1.13;;;;;;;;;;20926649;28;20219;-71
2023/08/24 03:34:10;;;;;;;1.80;1.27;;;;;;;;;;20962546;28;20281;-71
2023/08/24 03:44:12;;;;;;;3.05;1.15;;;;;;;;;;20969712;28;20227;-71
2023/08/24 03:54:14;;;;;;;2.95;1.20;;;;;;;;;;20932213;28;20222;-71
2023/08/24 04:04:16;;;;;;;2.47;1.20;;;;;;;;;;20904444;28;20223;-72
2023/08/24 04:14:18;;;;;;;2.83;1.50;;;;;;;;;;20951166;28;20253;-71
2023/08/24 04:24:20;;;;;;;3.28;1.08;;;;;;;;;;20927506;28;20608;-74
2023/08/24 04:34:21;;;;;;;1.73;1.10;;;;;;;;;;20976929;28;20273;-73
2023/08/24 04:44:24;;;;;;;3.25;1.20;;;24.10;99.90;;;;;;20942035;28;20262;-75
2023/08/24 04:54:26;;;;;;;1.90;1.15;;;;;;;;;;20963527;28;20285;-73
2023/08/24 05:04:28;;;;;;;2.55;1.17;;;;;;;;;;20920049;28;20267;-73
2023/08/24 05:14:29;;;;;;;3.30;1.55;;;;;;;;;;20939834;28;20292;-73
2023/08/24 05:24:31;;;;;;;1.75;1.05;;;;;;;;;;20964679;28;20691;-74
2023/08/24 05:34:33;;;;;;;2.03;1.10;;;;;;;;;;20979430;28;20278;-75
2023/08/24 05:44:35;;;;;;;1.88;1.20;;;;;;;;;;20967562;28;20211;-77
2023/08/24 05:54:37;;;;;;;2.58;1.00;;;;;;;;;;20969577;28;20225;-76
2023/08/24 06:04:39;;;;;;;2.65;1.30;;;;;;;;;;20971818;28;20213;-75
2023/08/24 06:14:40;;;;;;;2.50;1.20;;;;;;;;;;20958767;28;20216;-76
2023/08/24 06:24:42;;;;;;;1.92;1.13;;;;;;;;;;20961729;28;20206;-75
2023/08/24 06:34:44;;;;;;;2.17;1.13;;;;;;;;;;20981457;28;20238;-75
2023/08/24 06:44:49;;;;;;;3.22;1.15;;;;;;;;;;20971740;28;20208;-77
2023/08/24 06:54:53;;;;;;;1.90;1.13;;;;;;;;;;20928325;28;20706;-72
2023/08/24 07:04:57;;;;;;;1.33;0.90;;;;;;;;;;20955391;28;20267;-74
2023/08/24 07:14:59;;;;;;;2.38;1.30;;;;;;;;;;20982941;28;20829;-75
2023/08/24 07:25:04;;;;;;;1.20;0.90;;;25.20;99.90;;;;;;20948091;28;20223;-74
2023/08/24 07:35:06;;;;;;;2.03;1.20;;;;;;;;;;20982368;28;20237;-74
2023/08/24 07:45:08;;;;;;;2.75;1.80;;;;;;;;;;20980802;28;20311;-74
2023/08/24 07:55:10;;;;;;;1.55;1.13;;;;;;;;;;20973937;28;20246;-75
2023/08/24 08:05:12;;;;;;;2.67;1.20;;;;;;;;;;20922827;28;20227;-73
2023/08/24 08:15:14;;;;;;;2.78;1.38;;;26.00;99.90;;;;;;20939118;28;20696;-74
2023/08/24 08:25:17;;;;;;;1.77;1.10;;;;;;;;;;20940339;28;20242;-75
2023/08/24 08:35:19;;;;;;;1.80;1.17;;;;;;;;;;20906259;28;20555;-74
2023/08/24 08:45:25;;;;;;;2.75;1.35;;;;;;;;;;20979456;28;20266;-74
2023/08/24 08:55:28;;;;;;;3.20;0.90;;;;;;;;;;21021923;22;20239;-70
2023/08/24 09:05:30;;;;;;;2.65;1.30;;;;;;;;;;21001129;28;21440;-69
2023/08/24 09:15:35;;;;;;;1.70;1.20;;;;;;;;;;20990062;28;20235;-70
2023/08/24 09:25:46;;;;;;;2.25;0.90;;;;;;;;;;21002723;28;20268;-69
2023/08/24 09:35:54;;;;;;;1.48;0.90;;;27.80;99.90;;;;;;20948939;28;20219;-70
2023/08/24 09:45:56;;;;;;;2.47;0.95;;;28.00;99.90;;;;;;20988351;28;20689;-70
2023/08/24 09:56:03;;;;;;;1.88;0.90;;;;;;;;;;21035519;28;20291;-71
2023/08/24 10:06:05;;;;;;;1.73;0.90;;;;;;;;;;21014207;28;20605;-69
2023/08/24 10:16:08;;;;;;;2.58;0.68;;;28.50;99.90;;;;;;21045663;28;21310;-70
2023/08/24 10:26:12;;;;;;;1.92;1.00;;;28.80;99.90;;;;;;21032666;28;20276;-70
2023/08/24 10:36:14;;;;;;;1.63;0.70;;;29.10;99.90;;;;;;21010620;28;20286;-69
2023/08/24 10:46:16;;;;;;;2.20;0.90;;;29.20;99.90;;;;;;21023526;28;20254;-71
2023/08/24 10:56:19;;;;;;;2.55;0.90;;;29.30;99.90;;;;;;21046687;28;20232;-70
2023/08/24 11:06:22;;;;;;;2.55;0.70;;;29.30;99.90;;;;;;21005631;28;20244;-70
2023/08/24 11:16:44;;;;;;;1.00;0.63;;;;;;;;;;21012902;28;20308;-70
2023/08/24 11:26:47;;;;;;;1.42;0.80;;;;;;;;;;20984383;28;20215;-70
2023/08/24 11:36:49;;;;;;;1.40;0.68;;;;;;;;;;21012454;28;20216;-70
2023/08/24 11:46:51;;;;;;;1.40;0.70;;;;;;;;;;21036817;28;20242;-70
2023/08/24 11:56:53;;;;;;;2.65;1.10;;;;;;;;;;20988708;28;20223;-70
2023/08/24 12:06:55;;;;;;;3.47;1.08;;;;;;;;;;20996663;28;20202;-70
2023/08/24 12:16:57;;;;;;;2.42;1.02;;;;;;;;;;20983593;28;20225;-71
2023/08/24 12:26:59;;;;;;;2.97;0.95;;;;;;;;;;21023582;28;20247;-71
2023/08/24 12:37:01;;;;;;;1.35;1.00;;;;;;;;;;20970203;28;20221;-71
2023/08/24 12:47:03;;;;;;;2.20;0.90;;;;;;;;;;20982272;28;20282;-71
2023/08/24 12:57:05;;;;;;;3.20;1.02;;;;;;;;;;20975766;28;20217;-71
2023/08/24 13:07:07;;;;;;;1.55;1.02;;;;;;;;;;20993086;28;20270;-71
2023/08/24 13:17:09;;;;;;;1.33;0.80;;;;;;;;;;20990464;28;20278;-70
2023/08/24 13:27:11;;;;;;;2.50;0.95;;;;;;;;;;20987348;28;20625;-71
2023/08/24 13:37:13;;;;;;;1.77;0.90;;;;;;;;;;21014201;28;20294;-71
2023/08/24 13:47:15;;;;;;;1.70;0.80;;;;;;;;;;21011457;28;20314;-71
2023/08/24 13:57:17;;;;;;;1.70;1.00;;;;;;;;;;20996919;28;20229;-70
2023/08/24 14:07:19;;;;;;;1.20;0.68;;;;;;;;;;20964429;28;20209;-70
2023/08/24 14:17:21;;;;;;;2.00;1.02;;;;;;;;;;20986124;28;20641;-68
2023/08/24 14:27:23;;;;;;;5.07;1.00;;;;;;;;;;20964737;28;20194;-67
2023/08/24 14:37:25;;;;;;;1.70;1.05;;;;;;;;;;20989529;28;20275;-68
2023/08/24 14:47:27;;;;;;;3.42;1.30;;;;;;;;;;20990845;28;20253;-68
2023/08/24 14:57:29;;;;;;;1.83;0.88;;;;;;;;;;20979051;28;20242;-69
2023/08/24 15:07:31;;;;;;;1.95;1.00;;;;;;;;;;21064883;28;20199;-69
2023/08/24 15:17:33;;;;;;;1.65;1.17;;;;;;;;;;20978726;28;20239;-70
2023/08/24 15:27:36;;;;;;;2.05;0.90;;;;;;;;;;21006175;28;20205;-69
2023/08/24 15:37:41;;;;;;;4.97;1.52;;;29.00;99.90;;;;;;20995777;28;20216;-69
2023/08/24 15:47:43;;;;;;;3.95;1.40;;;;;;;;;;20986026;22;20283;-77
2023/08/24 15:57:45;;;;;;;4.07;1.20;;;;;;;;;;20945880;28;20272;-76
2023/08/24 16:07:46;;;;;;;3.63;1.20;;;;;;;;;;20969287;28;20724;-77
2023/08/24 16:17:48;;;;;;;1.80;0.90;;;;;;;;;;20972765;28;20232;-77
2023/08/24 16:27:50;;;;;;;1.77;1.00;;;;;;;;;;20941014;28;20216;-76
2023/08/24 16:37:52;;;;;;;1.80;1.08;;;;;;;;;;20982542;28;20245;-76
2023/08/24 16:47:56;;;;;;;2.33;1.08;;;;;;;;;;20996794;28;20273;-77
2023/08/24 16:57:58;;;;;;;5.28;1.30;;;;;;;;;;20983666;28;20224;-77
2023/08/24 17:08:04;;;;;;;2.42;0.90;;;;;;;;;;20965084;28;20249;-76
2023/08/24 17:18:06;;;;;;;3.92;1.48;;;;;;;;;;20942924;28;20236;-79
2023/08/24 17:28:10;;;;;;;2.50;1.52;;;;;;;;;;20987968;28;20224;-76
2023/08/24 17:38:21;;;;;;;4.03;1.58;;;;;;;;;;20963054;28;20232;-76
2023/08/24 17:48:25;;;;;;;3.45;1.63;;;;;;;;;;20990548;28;20245;-75
2023/08/24 17:58:28;;;;;;;2.72;1.55;;;;;;;;;;20918302;28;20248;-77
2023/08/24 18:08:29;;;;;;;3.95;1.60;;;;;;;;;;20942479;28;20207;-77
2023/08/24 18:18:31;;;;;;;3.40;2.00;;;;;;;;;;20939335;28;20644;-76
2023/08/24 18:28:35;;;;;;;2.40;1.50;;;;;;;;;;20935145;28;20752;-76
2023/08/24 18:38:38;;;;;;;4.57;1.90;;;;;;;;;;20922060;28;20223;-76
2023/08/24 18:48:39;;;;;;;3.80;1.52;;;;;;;;;;20991798;28;20260;-78
2023/08/24 18:58:41;;;;;;;3.33;1.77;;;;;;;;;;20995961;28;20222;-76
2023/08/24 19:08:43;;;;;;;3.53;1.70;;;;;;;;;;20921630;28;20593;-76
2023/08/24 19:18:44;;;;;;;2.47;1.70;;;;;;;;;;20909577;28;20239;-76
2023/08/24 19:28:46;;;;;;;3.42;2.10;;;;;;;;;;20917327;28;20210;-77
2023/08/24 19:38:48;;;;;;;2.50;1.50;;;;;;;;;;20898826;28;20336;-77
2023/08/24 19:48:50;;;;;;;3.03;1.67;;;;;;;;;;20987533;28;20282;-77
2023/08/24 19:58:52;;;;;;;4.75;1.70;;;;;;;;;;20931074;28;20638;-77
2023/08/24 20:08:54;;;;;;;2.28;1.70;;;;;;;;;;20922707;28;20497;-77
2023/08/24 20:18:56;;;;;;;2.13;1.40;;;;;;;;;;20918664;28;20749;-76
2023/08/24 20:28:57;;;;;;;2.10;1.50;;;;;;;;;;20912359;28;20259;-76
2023/08/24 20:38:59;;;;;;;3.42;1.70;;;;;;;;;;20908826;28;20225;-76
2023/08/24 20:49:01;;;;;;;2.15;1.60;;;;;;;;;;20908346;28;20231;-77
2023/08/24 20:59:03;;;;;;;2.30;1.60;;;;;;;;;;20948495;28;20727;-76
2023/08/24 21:09:05;;;;;;;2.25;1.38;;;;;;;;;;20888813;28;20220;-76
2023/08/24 21:19:06;;;;;;;2.03;1.40;;;;;;;;;;20902960;28;20374;-76
2023/08/24 21:29:08;;;;;;;2.30;1.30;;;;;;;;;;20966832;28;20219;-76
2023/08/24 21:39:11;;;;;;;2.60;1.35;;;;;;;;;;20938481;28;20509;-76
2023/08/24 21:49:13;;;;;;;2.03;1.00;;;;;;;;;;20969186;22;20224;-70
2023/08/24 21:59:14;;;;;;;2.35;1.20;;;;;;;;;;20940392;28;20218;-70
2023/08/24 22:09:16;;;;;;;2.17;1.40;;;;;;;;;;20935201;28;20309;-69
2023/08/24 22:19:19;;;;;;;2.00;1.30;;;;;;;;;;20962888;28;20227;-69
2023/08/24 22:29:25;;;;;;;2.95;1.52;;;;;;;;;;20946233;28;20587;-69
2023/08/24 22:39:27;;;;;;;2.63;1.52;;;;;;;;;;20942483;28;20236;-69
2023/08/24 22:49:28;;;;;;;2.50;1.30;;;;;;;;;;20941352;28;20300;-70
2023/08/24 22:59:30;;;;;;;1.70;1.35;;;;;;;;;;20949110;28;20360;-70
2023/08/24 23:09:32;;;;;;;2.70;1.73;;;;;;;;;;20926075;28;20300;-70
2023/08/24 23:19:36;;;;;;;2.33;1.63;;;;;;;;;;20926597;28;20297;-70
2023/08/24 23:29:38;;;;;;;1.95;1.60;;;;;;;;;;20938171;28;20337;-70
2023/08/24 23:39:40;;;;;;;2.85;1.88;;;;;;;;;;20945809;28;20227;-70
2023/08/24 23:49:41;;;;;;;3.03;2.20;;;;;;;;;;20964533;28;20231;-70
2023/08/24 23:59:43;;;;;;;3.38;2.00;;;;;;;;;;20938442;28;20219;-70
